sensor_id;sensor_type;location;lat;lon;timestamp;pressure;altitude;pressure_sealevel;temperature;humidity
6020;BME280;3038;51.122;6.840;2023-04-02T07:06:45;101310.09;;;6.33;83.36
6020;BME280;3038;51.122;6.840;2023-04-02T07:09:11;101317.31;;;6.31;84.44
6020;BME280;3038;51.122;6.840;2023-04-02T07:11:37;101309.34;;;6.08;82.88
6020;BME280;3038;51.122;6.840;2023-04-02T07:14:02;101332.09;;;5.98;83.66
6020;BME280;3038;51.122;6.840;2023-04-02T07:16:30;101339.91;;;6.00;84.42
6020;BME280;3038;51.122;6.840;2023-04-02T07:18:56;101336.66;;;5.96;84.75
6020;BME280;3038;51.122;6.840;2023-04-02T07:21:25;101337.47;;;5.97;83.79
6020;BME280;3038;51.122;6.840;2023-04-02T07:23:52;101344.13;;;5.89;84.05
6020;BME280;3038;51.122;6.840;2023-04-02T07:26:20;101356.38;;;5.90;84.78
6020;BME280;3038;51.122;6.840;2023-04-02T07:28:47;101357.41;;;5.88;83.97
6020;BME280;3038;51.122;6.840;2023-04-02T07:31:24;101361.72;;;5.89;84.16
6020;BME280;3038;51.122;6.840;2023-04-02T07:33:52;101360.59;;;5.93;84.02
6020;BME280;3038;51.122;6.840;2023-04-02T07:36:22;101368.63;;;5.91;83.38
6020;BME280;3038;51.122;6.840;2023-04-02T07:38:48;101369.03;;;5.85;83.58
6020;BME280;3038;51.122;6.840;2023-04-02T07:41:13;101363.03;;;5.83;82.75
6020;BME280;3038;51.122;6.840;2023-04-02T07:43:42;101371.56;;;5.87;82.97
6020;BME280;3038;51.122;6.840;2023-04-02T07:46:09;101385.69;;;5.86;82.13
6020;BME280;3038;51.122;6.840;2023-04-02T07:48:35;101396.81;;;6.02;83.18
6020;BME280;3038;51.122;6.840;2023-04-02T07:51:00;101402.19;;;6.01;81.60
6020;BME280;3038;51.122;6.840;2023-04-02T07:53:28;101398.59;;;6.02;82.97
6020;BME280;3038;51.122;6.840;2023-04-02T07:55:56;101401.38;;;6.11;81.92
6020;BME280;3038;51.122;6.840;2023-04-02T07:58:21;101414.69;;;6.10;81.64
6020;BME280;3038;51.122;6.840;2023-04-02T08:00:49;101422.69;;;6.08;82.20
6020;BME280;3038;51.122;6.840;2023-04-02T08:03:15;101429.09;;;5.93;81.75
6020;BME280;3038;51.122;6.840;2023-04-02T08:05:40;101430.16;;;5.90;83.30
6020;BME280;3038;51.122;6.840;2023-04-02T08:08:06;101428.88;;;5.96;82.66
6020;BME280;3038;51.122;6.840;2023-04-02T08:10:31;101434.38;;;5.93;83.02
6020;BME280;3038;51.122;6.840;2023-04-02T08:12:56;101436.34;;;6.02;82.17
6020;BME280;3038;51.122;6.840;2023-04-02T08:15:22;101457.75;;;5.98;82.56
6020;BME280;3038;51.122;6.840;2023-04-02T08:17:50;101453.56;;;5.82;81.42
6020;BME280;3038;51.122;6.840;2023-04-02T08:20:20;101459.22;;;5.89;82.24
6020;BME280;3038;51.122;6.840;2023-04-02T08:22:47;101464.25;;;5.81;82.18
6020;BME280;3038;51.122;6.840;2023-04-02T08:25:12;101478.56;;;5.77;82.11
6020;BME280;3038;51.122;6.840;2023-04-02T08:27:38;101482.44;;;5.84;82.59
6020;BME280;3038;51.122;6.840;2023-04-02T08:30:05;101488.56;;;5.84;82.31
6020;BME280;3038;51.122;6.840;2023-04-02T08:32:30;101499.53;;;5.78;82.49
6020;BME280;3038;51.122;6.840;2023-04-02T08:34:56;101503.53;;;5.84;82.81
6020;BME280;3038;51.122;6.840;2023-04-02T08:37:23;101504.03;;;5.89;82.16
6020;BME280;3038;51.122;6.840;2023-04-02T08:39:49;101512.84;;;5.77;81.07
6020;BME280;3038;51.122;6.840;2023-04-02T08:47:18;101520.28;;;5.83;81.99
6020;BME280;3038;51.122;6.840;2023-04-02T08:49:58;101533.97;;;5.88;81.86
6020;BME280;3038;51.122;6.840;2023-04-02T08:52:29;101539.13;;;5.89;80.60
6020;BME280;3038;51.122;6.840;2023-04-02T08:54:56;101534.19;;;5.98;81.06
6020;BME280;3038;51.122;6.840;2023-04-02T08:57:40;101542.09;;;5.98;80.24
6020;BME280;3038;51.122;6.840;2023-04-02T09:02:51;101556.78;;;6.26;79.41
6020;BME280;3038;51.122;6.840;2023-04-02T09:05:28;101557.59;;;6.39;78.76
6020;BME280;3038;51.122;6.840;2023-04-02T09:07:58;101558.13;;;6.55;79.28
6020;BME280;3038;51.122;6.840;2023-04-02T09:10:39;101563.22;;;6.69;77.89
6020;BME280;3038;51.122;6.840;2023-04-02T09:13:20;101570.75;;;6.87;79.03
6020;BME280;3038;51.122;6.840;2023-04-02T09:15:47;101575.91;;;6.88;79.35
6020;BME280;3038;51.122;6.840;2023-04-02T09:18:17;101579.09;;;6.81;77.70
6020;BME280;3038;51.122;6.840;2023-04-02T09:20:44;101578.38;;;6.79;78.29
6020;BME280;3038;51.122;6.840;2023-04-02T09:23:18;101586.28;;;6.79;77.01
6020;BME280;3038;51.122;6.840;2023-04-02T09:25:48;101601.69;;;6.96;77.76
6020;BME280;3038;51.122;6.840;2023-04-02T09:28:14;101590.94;;;6.99;77.50
6020;BME280;3038;51.122;6.840;2023-04-02T09:30:59;101605.63;;;6.79;76.95
6020;BME280;3038;51.122;6.840;2023-04-02T09:33:45;101608.09;;;6.69;77.01
6020;BME280;3038;51.122;6.840;2023-04-02T09:36:36;101619.31;;;6.84;77.66
6020;BME280;3038;51.122;6.840;2023-04-02T09:39:15;101620.31;;;6.70;77.85
6020;BME280;3038;51.122;6.840;2023-04-02T09:41:41;101626.22;;;6.74;77.50
6020;BME280;3038;51.122;6.840;2023-04-02T09:44:13;101631.19;;;6.90;76.22
6020;BME280;3038;51.122;6.840;2023-04-02T09:46:59;101635.03;;;6.86;75.69
6020;BME280;3038;51.122;6.840;2023-04-02T09:49:33;101648.81;;;6.78;77.22
6020;BME280;3038;51.122;6.840;2023-04-02T09:52:25;101653.56;;;6.97;76.21
6020;BME280;3038;51.122;6.840;2023-04-02T09:55:23;101662.41;;;6.96;77.08
6020;BME280;3038;51.122;6.840;2023-04-02T09:58:06;101662.59;;;7.06;74.73
6020;BME280;3038;51.122;6.840;2023-04-02T10:00:31;101663.28;;;6.97;75.74
6020;BME280;3038;51.122;6.840;2023-04-02T10:05:29;101677.72;;;7.04;75.92
6020;BME280;3038;51.122;6.840;2023-04-02T10:08:27;101692.53;;;6.93;74.57
6020;BME280;3038;51.122;6.840;2023-04-02T10:10:56;101702.22;;;6.82;76.19
6020;BME280;3038;51.122;6.840;2023-04-02T10:16:02;101709.06;;;7.08;75.03
6020;BME280;3038;51.122;6.840;2023-04-02T10:21:05;101709.69;;;7.12;74.39
6020;BME280;3038;51.122;6.840;2023-04-02T10:23:32;101719.44;;;7.22;74.86
6020;BME280;3038;51.122;6.840;2023-04-02T10:34:11;101748.50;;;7.22;74.32
6020;BME280;3038;51.122;6.840;2023-04-02T10:37:00;101743.00;;;7.26;72.40
6020;BME280;3038;51.122;6.840;2023-04-02T10:39:33;101748.03;;;7.29;73.46
6020;BME280;3038;51.122;6.840;2023-04-02T10:42:25;101756.28;;;7.48;73.55
6020;BME280;3038;51.122;6.840;2023-04-02T10:50:49;101753.47;;;8.09;72.23
6020;BME280;3038;51.122;6.840;2023-04-02T10:53:20;101765.38;;;8.25;72.84
6020;BME280;3038;51.122;6.840;2023-04-02T10:55:53;101770.78;;;8.24;71.23
6020;BME280;3038;51.122;6.840;2023-04-02T10:58:25;101768.22;;;8.11;71.59
6020;BME280;3038;51.122;6.840;2023-04-02T11:00:58;101779.28;;;8.05;70.97
6020;BME280;3038;51.122;6.840;2023-04-02T11:03:37;101784.97;;;8.23;71.04
6020;BME280;3038;51.122;6.840;2023-04-02T11:06:22;101790.63;;;8.18;71.44
6020;BME280;3038;51.122;6.840;2023-04-02T11:08:51;101788.22;;;8.27;71.15
6020;BME280;3038;51.122;6.840;2023-04-02T11:11:28;101799.88;;;8.13;71.63
6020;BME280;3038;51.122;6.840;2023-04-02T11:14:02;101801.19;;;8.18;71.14
6020;BME280;3038;51.122;6.840;2023-04-02T11:16:30;101807.91;;;8.11;71.15
6020;BME280;3038;51.122;6.840;2023-04-02T11:21:48;101812.22;;;8.01;71.17
6020;BME280;3038;51.122;6.840;2023-04-02T11:29:49;101826.81;;;8.18;69.70
6020;BME280;3038;51.122;6.840;2023-04-02T11:40:00;101833.81;;;7.84;70.35
6020;BME280;3038;51.122;6.840;2023-04-02T11:42:28;101836.16;;;7.99;72.21
